Great Bend, KS

6:15 AM CDT on May 24, 2015 (GMT -0500)
Edgepark Addition | | Change Station
CLOSE
Current Station
Personal Weather Station
Location: Great Bend, KS
Elevation: 1880 ft
Nearby Weather Stations

Elev 1880 ft 38.38 °N, 98.77 °W | Updated 4 seconds ago

Fog
Fog
57.6 °F
Feels Like 57.6 °F
N
0.0
Wind Variable Wind from East
Gusts 0.0 mph

Today
High -- | Low -- °F
--% Chance of Precip.
Yesterday
High -- | Low -- °F
Precip. -- in
6:17 AM 8:47 PM
Waxing Crescent, 38% visible
Pressure 29.89 in
Visibility 0.5 miles
Clouds Overcast 300 ft
Dew Point 57 °F
Humidity 99%
Rainfall 0.00 in
Snow Depth Not available.
UV 0.0 out of 12
Pollen 6.80 out of 12
Air Quality Not available.
Flu Activity No Activity
METAR KGBD 241055Z AUTO 10004KT 1/2SM OVC003 14/12 A2989 RMK AO1 P0007

More Conditions Fewer Conditions

Pressure 29.89 in
Visibility 0.5 miles
Clouds Overcast 300 ft
Dew Point 57 °F
Humidity 99%
Rainfall 0.00 in
Snow Depth Not available.
UV 0.0 out of 12
Pollen 6.80 out of 12
Air Quality Not available.
Flu Activity No Activity
METAR KGBD 241055Z AUTO 10004KT 1/2SM OVC003 14/12 A2989 RMK AO1 P0007

More Conditions Fewer Conditions

10-Day Weather Forecast

Almanac

Astronomy

May. 24, 2015 Rise Set
Actual Time
Civil Twilight
Nautical Twilight
Astronomical Twilight
Moon
Length of Visible Light
Length of Day
Tomorrow will be .
, % of the Moon is Illuminated

Today's Extremes

State Highs State Lows

Community

WunderPhotos

Upload Photos

1,823,709 photos uploaded!

WunderBlogs® & News

Nearby

Air Quality

  Air Quality AQ Index Pollutant
Not available.

Snow Depth

Station Depth Elevation

Earthquake Activity

City Distance Mag. Time & Date
Minimum magnitude displayed is 2.5.

Coastal Water Temperatures

Place Temperature

Stations

Nearby Weather Stations

Station Location Temp. Windchill Dew Point Humidity Wind Precip. Elev Updated Type